• Join FlightAware (Why Join?)
  • Login
  • US Flag 
04:59PM EDT


 

Airport Tracker/Info


-or-


 

Live Flight TrackerFlight Track Log ✈ ASQ5740 ✈ 14-Jul-2013 ✈ KORD - KGSO

Flight Track Log - Related Links

Times and Time Zones

All times are in EDT time to prevent confusion due to time zone crossing. See the ASQ5740 flight status page for this flight to view local times or setup timezone preferences in your user account.

Time Position Orientation Groundspeed Altitude Reporting Facility
EDT Latitude Longitude Course Direction KTS MPH feet Rate Location/Type
12:23PM 41.9333 -87.9167 207° Southwest 174 200 1,700  Level Chicago TRACON
12:25PM 41.8833 -87.9000 166° South 193 222 4,100 1,740 Climbing Chicago TRACON
12:25PM 41.8333 -87.8667 154° Southeast 262 302 5,200 1,860 Climbing Chicago TRACON
12:27PM 41.7336 -87.5248 159° South  Level Estimated
12:27PM 41.7619 -87.8217 155° Southeast 259 298 8,100  Level Chicago Center
12:28PM 41.6713 -87.4298 153° Southeast  Level Estimated
12:28PM 41.6967 -87.7744 152° Southeast 265 305 10,200  Level Chicago Center
12:29PM 41.5876 -87.4880 207° Southwest  Level FlightAware Approximate
12:29PM 41.6158 -87.7142 151° Southeast 275 316 12,400  Level Chicago Center
12:30PM 41.5406 -87.6581 151° Southeast 304 350 13,500 1,200 Climbing Chicago Center
12:31PM 41.4644 -87.6011 151° Southeast 310 357 15,000 1,320 Climbing Chicago Center
12:32PM 41.3783 -87.5642 162° South 323 372 16,300 1,200 Climbing Chicago Center
12:33PM 41.2872 -87.5483 173° South 329 379 17,500 960 Climbing Chicago Center
12:34PM 41.1939 -87.5317 172° South 335 386 18,300 840 Climbing Chicago Center
12:35PM 41.1008 -87.5064 168° South 339 390 19,300 960 Climbing Chicago Center
12:36PM 40.9869 -87.4744 168° South 347 399 20,400 900 Climbing Chicago Center
12:37PM 40.8906 -87.4497 169° South 352 405 21,200 720 Climbing Chicago Center
12:38PM 40.7922 -87.4228 168° South 359 413 21,900 720 Climbing Chicago Center
12:39PM 40.6931 -87.3958 168° South 363 418 22,700 780 Climbing Chicago Center
12:40PM 40.5953 -87.3717 169° South 361 415 23,600 960 Climbing Chicago Center
12:41PM 40.4764 -87.3411 169° South 363 418 24,700 960 Climbing Chicago Center
12:42PM 40.4000 -87.2842 150° Southeast 358 412 25,600 840 Climbing Chicago Center
12:43PM 40.3211 -87.2119 145° Southeast 349 402 26,500 720 Climbing Chicago Center
12:44PM 40.2261 -87.1225 144° Southeast 351 404 27,100 540 Climbing Chicago Center
12:45PM 40.1450 -87.0497 146° Southeast 354 407 27,700 660 Climbing Chicago Center
12:46PM 40.0953 -87.0039 145° Southeast 359 413 28,200 780 Climbing Indianapolis Center
12:47PM 40.0181 -86.9250 142° Southeast 353 406 29,000 360 Climbing Indianapolis Center
12:48PM 39.9583 -86.8250 128° Southeast 351 404 29,000  Level Indianapolis Center
12:49PM 39.8967 -86.7233 128° Southeast 356 410 29,000  Level Indianapolis Center
12:50PM 39.8228 -86.6036 129° Southeast 356 410 29,000  Level Indianapolis Center
12:51PM 39.7603 -86.5031 129° Southeast 360 414 29,000  Level Indianapolis Center
12:52PM 39.6981 -86.4056 130° Southeast 359 413 29,000  Level Indianapolis Center
12:53PM 39.6358 -86.3064 129° Southeast 365 420 29,000  Level Indianapolis Center
12:54PM 39.5628 -86.1869 128° Southeast 359 413 29,000  Level Indianapolis Center
12:55PM 39.5022 -86.0886 129° Southeast 355 409 29,000  Level Indianapolis Center
12:56PM 39.4403 -85.9906 129° Southeast 354 407 29,000  Level Indianapolis Center
12:57PM 39.3792 -85.8919 129° Southeast 353 406 29,000  Level Indianapolis Center
12:58PM 39.3167 -85.7942 130° Southeast 354 407 29,000  Level Indianapolis Center
12:59PM 39.2553 -85.6961 129° Southeast 353 406 29,000  Level Indianapolis Center
01:00PM 39.1814 -85.5803 129° Southeast 350 403 29,000  Level Indianapolis Center
01:01PM 39.1194 -85.4833 129° Southeast 350 403 29,000  Level Indianapolis Center
01:02PM 39.0567 -85.3878 130° Southeast 351 404 29,000  Level Indianapolis Center
01:03PM 38.9958 -85.2908 129° Southeast 351 404 29,000  Level Indianapolis Center
01:05PM 38.9336 -85.1964 130° Southeast 349 402 29,000  Level Indianapolis Center
01:06PM 38.8725 -85.0989 129° Southeast 349 402 29,000  Level Indianapolis Center
01:07PM 38.7983 -84.9844 130° Southeast 350 403 29,000  Level Indianapolis Center
01:08PM 38.7364 -84.8892 130° Southeast 348 400 29,000  Level Indianapolis Center
01:09PM 38.6750 -84.7964 130° Southeast 344 396 29,000  Level Indianapolis Center
01:10PM 38.6122 -84.6997 130° Southeast 347 399 29,000  Level Indianapolis Center
01:11PM 38.5511 -84.6047 129° Southeast 347 399 29,000  Level Indianapolis Center
01:12PM 38.4781 -84.4964 131° Southeast 346 398 29,000  Level Indianapolis Center
01:13PM 38.4161 -84.4006 130° Southeast 349 402 29,000  Level Indianapolis Center
01:14PM 38.3536 -84.3069 130° Southeast 347 399 29,000  Level Indianapolis Center
01:15PM 38.2919 -84.2114 129° Southeast 348 400 29,000  Level Indianapolis Center
01:16PM 38.2281 -84.1178 131° Southeast 349 402 29,000  Level Indianapolis Center
01:17PM 38.1647 -84.0228 130° Southeast 350 403 29,000  Level Indianapolis Center
01:18PM 38.1006 -83.9283 131° Southeast 351 404 29,000  Level Indianapolis Center
01:19PM 38.0261 -83.8169 130° Southeast 354 407 29,000  Level Indianapolis Center
01:20PM 37.9619 -83.7211 130° Southeast 356 410 29,000  Level Indianapolis Center
01:21PM 37.8975 -83.6264 131° Southeast 355 409 29,000  Level Indianapolis Center
01:22PM 37.8333 -83.5314 131° Southeast 355 409 29,000  Level Indianapolis Center
01:23PM 37.7683 -83.4353 131° Southeast 354 407 29,000  Level Indianapolis Center
01:24PM 37.7039 -83.3400 131° Southeast 358 412 29,000  Level Indianapolis Center
01:25PM 37.6278 -83.2292 131° Southeast 358 412 29,000 -300 Level Indianapolis Center
01:26PM 37.5622 -83.1339 131° Southeast 360 414 28,400 -780 Descending Indianapolis Center
01:27PM 37.4964 -83.0381 131° Southeast 359 413 27,400 -720 Descending Indianapolis Center
01:28PM 37.4303 -82.9419 131° Southeast 362 417 27,000 -240 Descending Indianapolis Center
01:29PM 37.3669 -82.8497 131° Southeast 351 404 27,000  Level Indianapolis Center
01:30PM 37.3047 -82.7594 131° Southeast 343 395 27,000  Level Indianapolis Center
01:31PM 37.2431 -82.6728 132° Southeast 333 383 27,000  Level Indianapolis Center
01:32PM 37.1733 -82.5714 131° Southeast 328 377 27,000  Level Indianapolis Center
01:33PM 37.1142 -82.4875 131° Southeast 320 368 27,000  Level Indianapolis Center
01:34PM 37.0553 -82.4042 132° Southeast 318 366 27,000  Level Indianapolis Center
01:35PM 36.9967 -82.3217 132° Southeast 316 364 27,000  Level Indianapolis Center
01:36PM 36.9400 -82.2403 131° Southeast 310 357 27,000 -360 Level Indianapolis Center
01:37PM 36.8808 -82.1581 132° Southeast 316 364 26,300 -840 Descending Indianapolis Center
01:39PM 36.8167 -82.0675 131° Southeast 340 391 25,300 -660 Descending Indianapolis Center
01:40PM 36.7567 -81.9692 127° Southeast 353 406 25,000 -180 Descending Indianapolis Center
01:41PM 36.6875 -81.8539 127° Southeast 354 407 25,000 -420 Level Indianapolis Center
01:42PM 36.6250 -81.7522 127° Southeast 356 410 24,200 -900 Descending Atlanta Center
01:43PM 36.5628 -81.6506 127° Southeast 362 417 23,200 -960 Descending Atlanta Center
01:44PM 36.5150 -81.5539 122° Southeast 368 423 22,300 -960 Descending Atlanta Center
01:45PM 36.4644 -81.4367 118° Southeast 368 423 21,300 -1,380 Descending Atlanta Center
01:46PM 36.4161 -81.3247 118° Southeast 373 429 19,600 -1,800 Descending Atlanta Center
01:47PM 36.3614 -81.2053 120° Southeast 368 423 17,800 -1,560 Descending Atlanta Center
01:48PM 36.3150 -81.0961 118° Southeast 357 411 16,500 -1,500 Descending Atlanta Center
01:49PM 36.2686 -80.9922 119° Southeast 352 405 14,800 -1,800 Descending Atlanta Center
01:50PM 36.2244 -80.8911 118° Southeast 340 391 13,000 -1,800 Descending Atlanta Center
01:51PM 36.1800 -80.7925 119° Southeast 327 376 11,300 -1,020 Descending Atlanta Center
01:52PM 36.1422 -80.7039 118° Southeast 313 360 11,000 -180 Descending Atlanta Center
01:53PM 36.1253 -80.6122 103° East 283 326 11,000  Level Atlanta Center
01:54PM 36.1122 -80.5200 100° East 288 331 11,000 -300 Level Atlanta Center
01:55PM 36.0825 -80.4314 113° Southeast 288 331 10,400 -840 Descending Atlanta Center
01:56PM 36.0444 -80.3483 120° Southeast 283 326 9,400 -900 Descending Atlanta Center
01:57PM 36.0114 -80.2833 122° Southeast 232 267 8,600 -1,080 Descending Atlanta Center
01:58PM 35.9967 -80.2172 105° East 203 234 7,300 -1,320 Descending Atlanta Center
01:59PM 35.9989 -80.1503 88° East 191 220 6,000 -1,320 Descending Atlanta Center